createdAt,value
2018-11-27T00:02:10.318Z,12.35
2018-11-27T00:07:12.918Z,12.85
2018-11-27T00:12:15.425Z,12.10
2018-11-27T00:17:18.069Z,13.35
2018-11-27T00:22:20.539Z,12.98
2018-11-27T00:27:22.979Z,12.88
2018-11-27T00:32:25.533Z,12.88
2018-11-27T00:37:28.074Z,13.05
2018-11-27T00:42:30.549Z,12.33
2018-11-27T00:47:33.421Z,12.82
2018-11-27T00:52:35.827Z,13.40
2018-11-27T00:57:38.855Z,13.38
2018-11-27T01:02:41.250Z,13.43
2018-11-27T01:07:44.164Z,12.47
2018-11-27T01:12:46.647Z,13.25
2018-11-27T01:17:51.435Z,12.13
2018-11-27T01:22:53.945Z,12.28
2018-11-27T01:27:56.389Z,13.25
2018-11-27T01:32:58.773Z,12.70
2018-11-27T01:38:01.215Z,12.33
2018-11-27T01:43:03.929Z,12.40
2018-11-27T01:48:06.429Z,12.73
2018-11-27T01:53:09.052Z,12.82
2018-11-27T01:58:11.551Z,13.53
2018-11-27T02:03:14.246Z,13.22
2018-11-27T02:08:16.814Z,12.85
2018-11-27T02:13:19.192Z,13.00
2018-11-27T02:18:21.819Z,12.68
2018-11-27T02:23:24.450Z,13.70
2018-11-27T02:28:27.152Z,14.60
2018-11-27T02:33:29.738Z,14.47
2018-11-27T02:38:32.355Z,15.28
2018-11-27T02:43:35.811Z,14.60
2018-11-27T02:48:38.369Z,12.85
2018-11-27T02:53:40.923Z,14.43
2018-11-27T02:58:43.357Z,13.53
2018-11-27T03:03:45.833Z,13.93
2018-11-27T03:08:48.403Z,15.30
2018-11-27T03:13:50.876Z,13.30
2018-11-27T03:18:53.256Z,14.85
2018-11-27T03:23:55.793Z,13.58
2018-11-27T03:28:58.227Z,13.83
2018-11-27T03:34:00.886Z,13.55
2018-11-27T03:39:05.857Z,13.80
2018-11-27T03:44:08.515Z,14.43
2018-11-27T03:49:10.985Z,14.80
2018-11-27T03:54:13.409Z,14.07
2018-11-27T03:59:15.884Z,12.95
2018-11-27T04:04:18.481Z,14.23
2018-11-27T04:09:21.025Z,15.20
2018-11-27T04:14:23.495Z,14.35
2018-11-27T04:19:25.937Z,14.58
2018-11-27T04:24:28.378Z,14.13
2018-11-27T04:29:30.868Z,14.00
2018-11-27T04:34:33.662Z,14.75
2018-11-27T04:39:36.142Z,14.87
2018-11-27T04:44:38.544Z,14.25
2018-11-27T04:49:40.988Z,13.43
2018-11-27T04:54:43.360Z,15.23
2018-11-27T04:59:45.834Z,15.68
2018-11-27T05:04:48.326Z,14.28
2018-11-27T05:09:50.738Z,14.78
2018-11-27T05:14:53.184Z,13.68
2018-11-27T05:19:55.582Z,15.85
2018-11-27T05:24:58.044Z,13.53
2018-11-27T05:30:00.425Z,14.58
2018-11-27T05:35:03.176Z,15.58
2018-11-27T05:40:09.234Z,14.20
2018-11-27T05:45:14.119Z,15.58
2018-11-27T05:50:17.217Z,13.72
2018-11-27T05:55:19.644Z,15.40
2018-11-27T06:00:24.350Z,15.43
2018-11-27T06:05:33.935Z,15.68
2018-11-27T06:10:36.436Z,13.00
2018-11-27T06:20:48.027Z,15.08
2018-11-27T06:25:51.199Z,16.70
2018-11-27T06:30:53.654Z,14.55
2018-11-27T06:35:56.116Z,15.90
2018-11-27T06:40:58.611Z,14.93
2018-11-27T06:46:01.142Z,13.80
2018-11-27T06:51:03.963Z,12.88
2018-11-27T06:56:06.729Z,14.75
2018-11-27T07:01:09.129Z,14.28
2018-11-27T07:06:11.519Z,15.25
2018-11-27T07:11:14.013Z,16.70
2018-11-27T07:16:16.509Z,13.62
2018-11-27T07:21:19.207Z,14.40
2018-11-27T07:26:21.908Z,12.95
2018-11-27T07:31:24.355Z,13.13
2018-11-27T07:36:26.887Z,13.48
2018-11-27T07:41:29.394Z,14.53
2018-11-27T07:46:31.958Z,12.78
2018-11-27T07:51:34.416Z,12.33
2018-11-27T07:56:37.674Z,12.88
2018-11-27T08:01:40.291Z,12.43
2018-11-27T08:06:42.761Z,12.85
2018-11-27T08:11:45.265Z,14.38
2018-11-27T08:16:47.718Z,13.72
2018-11-27T08:21:50.183Z,12.55
2018-11-27T08:26:52.764Z,12.85
2018-11-27T08:31:55.204Z,13.50
2018-11-27T08:36:57.710Z,14.25
2018-11-27T08:42:00.212Z,13.60
2018-11-27T08:47:02.715Z,13.65
2018-11-27T08:52:05.261Z,13.58
2018-11-27T08:57:07.744Z,14.07
2018-11-27T09:02:10.396Z,13.30
2018-11-27T09:07:12.791Z,11.97
2018-11-27T09:12:15.290Z,13.58
2018-11-27T09:17:17.802Z,13.53
2018-11-27T09:22:20.285Z,13.55
2018-11-27T09:27:22.753Z,14.05
2018-11-27T09:32:25.236Z,11.85
2018-11-27T09:37:27.758Z,14.93
2018-11-27T09:42:30.231Z,13.55
2018-11-27T09:47:32.634Z,13.85
2018-11-27T09:52:35.040Z,12.93
2018-11-27T09:57:37.531Z,12.90
2018-11-27T10:02:40.036Z,13.95
2018-11-27T10:07:42.491Z,14.65
2018-11-27T10:12:44.979Z,14.58
2018-11-27T10:17:51.747Z,14.90
2018-11-27T10:22:54.276Z,14.60
2018-11-27T10:27:56.975Z,14.75
2018-11-27T10:32:59.445Z,15.38
2018-11-27T10:38:02.179Z,14.75
2018-11-27T10:43:05.198Z,15.38
2018-11-27T10:48:07.688Z,14.98
2018-11-27T10:53:11.254Z,14.20
2018-11-27T10:58:13.787Z,13.60
2018-11-27T11:03:46.847Z,14.58
2018-11-27T11:08:49.292Z,15.00
2018-11-27T11:13:51.805Z,14.10
2018-11-27T11:18:54.286Z,13.95
2018-11-27T11:23:56.799Z,14.80
2018-11-27T11:28:59.334Z,15.20
2018-11-27T11:34:01.779Z,14.60
2018-11-27T11:39:08.391Z,14.33
2018-11-27T11:44:10.871Z,14.00
2018-11-27T11:49:13.334Z,14.65
2018-11-27T11:54:15.717Z,14.50
2018-11-27T11:59:18.239Z,14.53
2018-11-27T12:04:20.784Z,14.75
2018-11-27T12:09:23.256Z,16.10
2018-11-27T12:14:25.756Z,15.55
2018-11-27T12:19:28.214Z,15.20
2018-11-27T12:24:30.943Z,14.10
2018-11-27T12:29:33.396Z,14.15
2018-11-27T12:34:35.829Z,15.38
2018-11-27T12:39:38.388Z,14.18
2018-11-27T12:44:40.823Z,15.23
2018-11-27T12:49:43.300Z,14.65
2018-11-27T12:54:46.075Z,16.27
2018-11-27T12:59:48.527Z,15.78
2018-11-27T13:04:50.973Z,16.10
2018-11-27T13:09:53.474Z,15.78
2018-11-27T13:14:55.889Z,15.10
2018-11-27T13:19:58.386Z,16.15
2018-11-27T13:25:00.906Z,16.67
2018-11-27T13:30:04.410Z,16.37
2018-11-27T13:35:09.327Z,15.95
2018-11-27T13:40:12.404Z,15.45
2018-11-27T13:45:15.501Z,14.85
2018-11-27T13:50:17.936Z,16.15
2018-11-27T13:55:21.543Z,15.63
2018-11-27T14:00:24.099Z,15.53
2018-11-27T14:05:26.616Z,15.25
2018-11-27T14:10:29.248Z,16.00
2018-11-27T14:15:31.734Z,16.15
2018-11-27T14:20:34.249Z,15.72
2018-11-27T14:25:36.678Z,16.25
2018-11-27T14:30:39.190Z,15.45
2018-11-27T14:35:41.669Z,16.73
2018-11-27T14:40:44.156Z,15.40
2018-11-27T14:45:46.634Z,15.48
2018-11-27T14:50:49.026Z,14.83
2018-11-27T14:55:51.574Z,14.98
2018-11-27T15:00:54.005Z,15.43
2018-11-27T15:05:56.470Z,14.30
2018-11-27T15:10:58.985Z,15.20
2018-11-27T15:16:01.368Z,14.65
2018-11-27T15:21:04.162Z,13.88
2018-11-27T15:26:06.629Z,15.20
2018-11-27T15:31:09.099Z,15.75
2018-11-27T15:36:11.588Z,15.13
2018-11-27T15:41:14.113Z,14.58
2018-11-27T15:46:16.626Z,21.55
2018-11-27T15:51:19.153Z,13.38
2018-11-27T15:56:21.711Z,13.28
2018-11-27T16:01:24.211Z,13.83
2018-11-27T16:06:26.653Z,15.10
2018-11-27T16:11:30.140Z,14.73
2018-11-27T16:16:32.636Z,14.33
2018-11-27T16:21:35.119Z,13.60
2018-11-27T16:26:37.695Z,13.98
2018-11-27T16:31:40.218Z,13.90
2018-11-27T16:36:43.355Z,14.07
2018-11-27T16:41:45.951Z,15.43
2018-11-27T16:46:48.361Z,14.73
2018-11-27T16:51:50.787Z,13.60
2018-11-27T16:56:53.507Z,13.30
2018-11-27T17:01:56.046Z,13.70
2018-11-27T17:06:58.519Z,13.75
2018-11-27T17:12:01.045Z,14.70
2018-11-27T17:17:03.774Z,15.58
2018-11-27T17:22:07.123Z,13.18
2018-11-27T17:27:09.200Z,13.60
2018-11-27T17:32:11.762Z,14.73
2018-11-27T17:37:14.236Z,14.30
2018-11-27T17:42:16.711Z,13.88
2018-11-27T17:47:19.065Z,14.85
2018-11-27T17:52:21.625Z,15.38
2018-11-27T17:57:24.299Z,15.70
2018-11-27T18:02:27.035Z,14.18
2018-11-27T18:07:29.770Z,14.95
2018-11-27T18:12:33.713Z,15.20
2018-11-27T18:17:34.997Z,13.15
2018-11-27T18:22:37.781Z,14.03
2018-11-27T18:27:40.699Z,14.15
2018-11-27T18:32:43.287Z,15.80
2018-11-27T18:37:46.162Z,13.28
2018-11-27T18:42:48.867Z,12.65
2018-11-27T18:47:51.420Z,14.73
2018-11-27T18:52:53.945Z,15.05
2018-11-27T18:57:56.397Z,14.58
2018-11-27T19:02:58.847Z,14.60
2018-11-27T19:08:01.643Z,14.83
2018-11-27T19:13:05.592Z,13.90
2018-11-27T19:18:19.780Z,15.50
2018-11-27T19:23:25.185Z,14.55
2018-11-27T19:28:27.696Z,15.25
2018-11-27T19:33:30.262Z,14.78
2018-11-27T19:38:32.777Z,15.25
2018-11-27T19:43:35.359Z,15.20
2018-11-27T19:48:38.028Z,15.40
2018-11-27T19:53:40.692Z,14.20
2018-11-27T19:58:43.280Z,13.88
2018-11-27T20:03:46.292Z,16.07
2018-11-27T20:08:49.123Z,15.13
2018-11-27T20:13:52.018Z,15.00
2018-11-27T20:18:54.694Z,15.78
2018-11-27T20:23:57.272Z,15.13
2018-11-27T20:28:59.971Z,15.00
2018-11-27T20:34:02.643Z,16.17
2018-11-27T20:39:08.595Z,15.23
2018-11-27T20:44:11.396Z,17.15
2018-11-27T20:49:14.349Z,16.67
2018-11-27T20:54:18.396Z,15.55
2018-11-27T20:59:28.466Z,16.15
2018-11-27T21:04:36.090Z,16.32
2018-11-27T21:09:45.486Z,17.07
2018-11-27T21:14:50.758Z,18.23
2018-11-27T21:19:54.557Z,16.30
2018-11-27T21:24:57.370Z,15.88
2018-11-27T21:35:24.822Z,16.80
2018-11-27T21:40:37.060Z,16.73
2018-11-27T21:45:45.520Z,16.97
2018-11-27T21:50:49.828Z,18.70
2018-11-27T21:55:52.522Z,17.48
2018-11-27T22:00:55.035Z,21.27
2018-11-27T22:05:57.718Z,18.95
2018-11-27T22:11:06.804Z,17.17
2018-11-27T22:16:09.323Z,17.95
2018-11-27T22:21:11.832Z,17.70
2018-11-27T22:26:14.322Z,18.15
2018-11-27T22:31:16.822Z,17.10
2018-11-27T22:36:19.292Z,17.48
2018-11-27T22:41:21.787Z,17.80
2018-11-27T22:46:24.287Z,17.42
2018-11-27T22:51:27.085Z,17.57
2018-11-27T22:56:29.569Z,16.55
2018-11-27T23:01:38.451Z,17.80
2018-11-27T23:06:42.039Z,16.37
2018-11-27T23:11:44.771Z,17.37
2018-11-27T23:16:47.324Z,17.12
2018-11-27T23:21:49.812Z,18.75
2018-11-27T23:26:52.362Z,17.12
2018-11-27T23:31:55.279Z,18.45
2018-11-27T23:36:57.952Z,17.30
2018-11-27T23:42:00.469Z,16.75
2018-11-27T23:47:03.024Z,16.65
2018-11-27T23:52:05.719Z,17.20
2018-11-27T23:57:08.194Z,17.65
